Terminal Aerodrome Forecast
Issued by NWS

Home | Current Version | Previous Version | Text Only | Print | Product List | Glossary On
Versions: 1 2 3 4 5 6 7 8 9 10 11 12 13 14 15
000
FTUS43 KEAX 271120
TAFMKC
TAF
KMKC 271120Z 2712/2812 16005KT P6SM SKC
      TEMPO 2712/2714 00000KT 1/4SM FZFG VV001
     FM271700 15012KT P6SM BKN100
     FM280000 17009KT P6SM VCTS BKN035CB
     FM280800 19012KT P6SM BKN030=

USA.gov is the U.S. government's official web portal to all federal, state and local government web resources and services.